createdAt,value
2024-01-11T00:02:04.134Z,26.50
2024-01-11T00:04:31.294Z,27.95
2024-01-11T00:06:58.601Z,23.70
2024-01-11T00:09:25.983Z,24.42
2024-01-11T00:11:53.198Z,28.15
2024-01-11T00:14:20.369Z,30.38
2024-01-11T00:16:47.551Z,23.25
2024-01-11T00:19:14.908Z,26.75
2024-01-11T00:21:42.484Z,26.52
2024-01-11T00:24:09.848Z,25.45
2024-01-11T00:26:37.948Z,26.98
2024-01-11T00:29:05.796Z,28.27
2024-01-11T00:31:33.095Z,28.55
2024-01-11T00:34:00.335Z,24.13
2024-01-11T00:36:27.684Z,27.00
2024-01-11T00:38:54.792Z,30.10
2024-01-11T00:41:21.983Z,28.17
2024-01-11T00:43:49.197Z,29.00
2024-01-11T00:46:16.283Z,28.42
2024-01-11T00:48:43.687Z,27.02
2024-01-11T00:51:11.077Z,25.55
2024-01-11T00:53:38.309Z,33.88
2024-01-11T00:56:05.566Z,28.15
2024-01-11T00:58:32.741Z,25.20
2024-01-11T01:00:59.869Z,22.92
2024-01-11T01:03:27.076Z,30.73
2024-01-11T01:05:54.431Z,30.98
2024-01-11T01:08:21.780Z,24.65
2024-01-11T01:10:48.941Z,28.35
2024-01-11T01:13:16.090Z,26.95
2024-01-11T01:15:43.525Z,31.63
2024-01-11T01:18:10.806Z,29.00
2024-01-11T01:20:38.052Z,35.30
2024-01-11T01:23:05.237Z,26.00
2024-01-11T01:25:33.673Z,31.15
2024-01-11T01:28:01.920Z,31.45
2024-01-11T01:30:29.367Z,35.10
2024-01-11T01:32:57.328Z,28.55
2024-01-11T01:35:24.721Z,31.40
2024-01-11T01:37:51.817Z,33.28
2024-01-11T01:40:18.915Z,18.27
2024-01-11T01:42:46.335Z,29.05
2024-01-11T01:45:13.752Z,26.00
2024-01-11T01:47:41.963Z,29.60
2024-01-11T01:50:09.992Z,28.27
2024-01-11T01:52:38.391Z,27.35
2024-01-11T01:55:07.338Z,29.20
2024-01-11T01:57:35.770Z,35.20
2024-01-11T02:00:03.532Z,29.02
2024-01-11T02:02:32.930Z,25.42
2024-01-11T02:05:00.182Z,32.28
2024-01-11T02:07:27.606Z,32.33
2024-01-11T02:09:54.852Z,35.15
2024-01-11T02:12:22.089Z,31.25
2024-01-11T02:14:49.472Z,27.67
2024-01-11T02:17:16.966Z,31.08
2024-01-11T02:19:44.574Z,29.33
2024-01-11T02:22:15.713Z,28.17
2024-01-11T02:24:42.855Z,33.53
2024-01-11T02:27:11.855Z,28.02
2024-01-11T02:29:39.210Z,32.03
2024-01-11T02:32:07.501Z,34.70
2024-01-11T02:34:35.074Z,33.83
2024-01-11T02:37:02.366Z,35.88
2024-01-11T02:39:29.578Z,31.13
2024-01-11T02:41:59.256Z,31.00
2024-01-11T02:44:26.622Z,27.58
2024-01-11T02:46:53.848Z,33.63
2024-01-11T02:49:21.146Z,32.88
2024-01-11T02:51:48.404Z,30.35
2024-01-11T02:54:15.529Z,32.22
2024-01-11T02:56:43.606Z,28.27
2024-01-11T02:59:11.025Z,24.20
2024-01-11T03:01:38.210Z,35.55
2024-01-11T03:04:06.126Z,27.65
2024-01-11T03:06:33.413Z,36.22
2024-01-11T03:09:00.568Z,23.50
2024-01-11T03:11:28.007Z,34.13
2024-01-11T03:13:56.608Z,31.90
2024-01-11T03:16:23.771Z,28.40
2024-01-11T03:18:50.974Z,34.58
2024-01-11T03:21:18.974Z,34.55
2024-01-11T03:23:46.107Z,32.15
2024-01-11T03:26:17.705Z,28.00
2024-01-11T03:28:45.367Z,27.55
2024-01-11T03:31:12.564Z,29.73
2024-01-11T03:33:39.923Z,34.92
2024-01-11T03:36:10.915Z,34.20
2024-01-11T03:38:38.111Z,36.80
2024-01-11T03:41:11.864Z,30.58
2024-01-11T03:43:39.384Z,27.63
2024-01-11T03:46:06.564Z,31.58
2024-01-11T03:48:33.841Z,30.95
2024-01-11T03:51:01.028Z,31.05
2024-01-11T03:53:28.268Z,26.95
2024-01-11T03:55:55.769Z,28.73
2024-01-11T03:58:23.819Z,30.42
2024-01-11T04:00:51.365Z,26.33
2024-01-11T04:03:18.664Z,31.25
2024-01-11T04:05:45.977Z,27.23
2024-01-11T04:08:13.254Z,26.80
2024-01-11T04:10:40.470Z,36.13
2024-01-11T04:13:08.832Z,32.88
2024-01-11T04:15:35.943Z,25.85
2024-01-11T04:18:03.331Z,30.15
2024-01-11T04:20:30.702Z,30.50
2024-01-11T04:22:57.942Z,25.27
2024-01-11T04:25:25.052Z,27.92
2024-01-11T04:27:52.217Z,29.65
2024-01-11T04:30:19.467Z,26.73
2024-01-11T04:32:46.607Z,29.52
2024-01-11T04:35:13.846Z,29.27
2024-01-11T04:37:41.310Z,25.98
2024-01-11T04:40:08.963Z,33.15
2024-01-11T04:42:36.084Z,29.38
2024-01-11T04:45:03.315Z,36.20
2024-01-11T04:47:30.775Z,27.17
2024-01-11T04:49:57.958Z,30.88
2024-01-11T04:52:25.131Z,26.63
2024-01-11T04:54:52.242Z,33.58
2024-01-11T04:57:19.441Z,27.42
2024-01-11T04:59:46.652Z,21.58
2024-01-11T05:02:13.803Z,25.25
2024-01-11T05:04:40.908Z,30.65
2024-01-11T05:07:08.011Z,31.85
2024-01-11T05:09:35.405Z,36.90
2024-01-11T05:12:02.584Z,29.15
2024-01-11T05:14:29.819Z,25.88
2024-01-11T05:16:57.217Z,32.20
2024-01-11T05:19:24.687Z,30.98
2024-01-11T05:21:51.869Z,34.78
2024-01-11T05:24:18.996Z,28.98
2024-01-11T05:26:46.168Z,32.70
2024-01-11T05:29:13.483Z,33.17
2024-01-11T05:31:40.815Z,28.35
2024-01-11T05:34:08.319Z,26.63
2024-01-11T05:36:35.525Z,30.85
2024-01-11T05:39:02.718Z,28.50
2024-01-11T05:41:29.873Z,33.67
2024-01-11T05:43:57.092Z,24.45
2024-01-11T05:46:24.327Z,26.75
2024-01-11T05:48:51.498Z,28.27
2024-01-11T05:51:18.703Z,28.30
2024-01-11T05:53:45.962Z,31.17
2024-01-11T05:56:13.280Z,28.33
2024-01-11T05:58:41.388Z,29.50
2024-01-11T06:01:08.913Z,38.85
2024-01-11T06:03:36.391Z,31.92
2024-01-11T06:06:04.739Z,30.98
2024-01-11T06:08:32.198Z,39.28
2024-01-11T06:10:59.909Z,31.00
2024-01-11T06:13:27.515Z,31.65
2024-01-11T06:15:54.866Z,33.40
2024-01-11T06:18:22.382Z,31.65
2024-01-11T06:20:49.723Z,34.92
2024-01-11T06:23:18.106Z,35.25
2024-01-11T06:25:47.353Z,33.42
2024-01-11T06:28:14.732Z,36.72
2024-01-11T06:30:42.190Z,36.05
2024-01-11T06:33:09.549Z,29.33
2024-01-11T06:35:36.845Z,29.42
2024-01-11T06:38:04.205Z,34.13
2024-01-11T06:40:31.511Z,38.85
2024-01-11T06:42:58.851Z,34.63
2024-01-11T06:45:26.013Z,38.70
2024-01-11T06:47:53.374Z,35.42
2024-01-11T06:50:20.602Z,34.40
2024-01-11T06:52:47.753Z,38.10
2024-01-11T06:55:14.928Z,39.00
2024-01-11T06:57:42.182Z,39.70
2024-01-11T07:00:09.764Z,31.90
2024-01-11T07:02:37.129Z,39.30
2024-01-11T07:05:04.499Z,37.88
2024-01-11T07:07:31.785Z,41.15
2024-01-11T07:09:58.900Z,35.10
2024-01-11T07:12:26.756Z,35.58
2024-01-11T07:14:53.969Z,37.40
2024-01-11T07:17:21.179Z,37.05
2024-01-11T07:19:48.492Z,40.88
2024-01-11T07:22:15.629Z,40.67
2024-01-11T07:24:43.675Z,34.85
2024-01-11T07:27:10.833Z,35.72
2024-01-11T07:29:38.040Z,41.72
2024-01-11T07:32:05.667Z,29.02
2024-01-11T07:34:33.170Z,37.42
2024-01-11T07:37:00.349Z,32.20
2024-01-11T07:39:27.573Z,38.45
2024-01-11T07:41:54.718Z,38.30
2024-01-11T07:44:22.136Z,41.22
2024-01-11T07:46:53.541Z,32.35
2024-01-11T07:49:22.521Z,38.67
2024-01-11T07:51:50.188Z,39.60
2024-01-11T07:54:17.478Z,36.75
2024-01-11T07:56:44.825Z,39.42
2024-01-11T07:59:15.998Z,36.97
2024-01-11T08:01:43.816Z,47.50
2024-01-11T08:04:11.211Z,40.55
2024-01-11T08:06:38.954Z,33.92
2024-01-11T08:09:06.668Z,38.15
2024-01-11T08:11:36.488Z,39.28
2024-01-11T08:14:06.657Z,41.28
2024-01-11T08:16:34.290Z,41.65
2024-01-11T08:19:02.212Z,41.05
2024-01-11T08:21:29.906Z,38.35
2024-01-11T08:24:01.560Z,45.33
2024-01-11T08:26:31.346Z,44.17
2024-01-11T08:28:58.795Z,35.58
2024-01-11T08:31:26.294Z,46.47
2024-01-11T08:33:53.694Z,56.45
2024-01-11T08:36:21.476Z,55.03
2024-01-11T08:38:48.926Z,57.97
2024-01-11T08:41:16.384Z,50.85
2024-01-11T08:43:43.665Z,38.38
2024-01-11T08:46:10.816Z,39.25
2024-01-11T08:48:38.142Z,40.53
2024-01-11T08:51:05.736Z,44.00
2024-01-11T08:53:32.934Z,41.55
2024-01-11T08:56:00.212Z,34.38
2024-01-11T08:58:27.807Z,38.72
2024-01-11T09:00:55.194Z,42.58
2024-01-11T09:03:22.615Z,45.33
2024-01-11T09:05:49.979Z,42.03
2024-01-11T09:08:17.250Z,39.35
2024-01-11T09:10:45.160Z,39.33
2024-01-11T09:13:14.769Z,39.67
2024-01-11T09:15:42.233Z,39.47
2024-01-11T09:18:09.691Z,34.70
2024-01-11T09:20:37.079Z,39.40
2024-01-11T09:23:04.946Z,38.60
2024-01-11T09:25:32.628Z,42.05
2024-01-11T09:28:00.103Z,38.83
2024-01-11T09:30:27.357Z,44.47
2024-01-11T09:32:54.803Z,39.70
2024-01-11T09:35:22.045Z,40.85
2024-01-11T09:37:49.198Z,36.72
2024-01-11T09:40:17.092Z,36.88
2024-01-11T09:42:44.662Z,41.00
2024-01-11T09:45:14.376Z,40.83
2024-01-11T09:47:41.966Z,43.10
2024-01-11T09:50:09.698Z,40.05
2024-01-11T09:52:39.294Z,38.05
2024-01-11T09:55:07.036Z,38.85
2024-01-11T09:57:34.773Z,42.08
2024-01-11T10:00:08.734Z,38.90
2024-01-11T10:02:36.063Z,34.97
2024-01-11T10:05:04.238Z,36.38
2024-01-11T10:07:32.356Z,38.38
2024-01-11T10:09:59.863Z,36.85
2024-01-11T10:12:27.066Z,34.03
2024-01-11T10:14:54.568Z,33.80
2024-01-11T10:17:24.437Z,43.13
2024-01-11T10:19:55.751Z,36.93
2024-01-11T10:22:26.118Z,34.78
2024-01-11T10:25:09.534Z,44.77
2024-01-11T10:27:36.667Z,38.35
2024-01-11T10:30:03.941Z,35.72
2024-01-11T10:32:31.229Z,32.58
2024-01-11T10:34:58.414Z,37.47
2024-01-11T10:37:25.788Z,37.75
2024-01-11T10:39:53.341Z,36.78
2024-01-11T10:42:23.092Z,35.92
2024-01-11T10:44:51.875Z,33.10
2024-01-11T10:47:20.082Z,31.80
2024-01-11T10:49:48.809Z,40.20
2024-01-11T10:52:16.886Z,35.22
2024-01-11T10:54:44.496Z,35.33
2024-01-11T10:57:12.003Z,34.85
2024-01-11T10:59:41.447Z,29.25
2024-01-11T11:02:13.837Z,36.63
2024-01-11T11:04:42.033Z,35.63
2024-01-11T11:07:10.096Z,32.53
2024-01-11T11:09:37.363Z,33.42
2024-01-11T11:12:05.604Z,28.25
2024-01-11T11:14:33.575Z,30.77
2024-01-11T11:17:00.861Z,33.08
2024-01-11T11:19:28.097Z,28.30
2024-01-11T11:21:55.236Z,33.85
2024-01-11T11:24:22.427Z,29.48
2024-01-11T11:26:49.656Z,32.55
2024-01-11T11:29:17.887Z,30.30
2024-01-11T11:31:55.167Z,30.42
2024-01-11T11:34:22.724Z,32.67
2024-01-11T11:36:55.898Z,30.98
2024-01-11T11:39:23.150Z,35.80
2024-01-11T11:41:51.125Z,28.98
2024-01-11T11:44:18.716Z,25.05
2024-01-11T11:46:47.669Z,30.42
2024-01-11T11:49:15.403Z,31.02
2024-01-11T11:51:44.903Z,27.70
2024-01-11T11:54:12.367Z,31.40
2024-01-11T11:56:39.645Z,32.10
2024-01-11T11:59:08.613Z,28.58
2024-01-11T12:01:37.150Z,30.63
2024-01-11T12:04:04.312Z,31.02
2024-01-11T12:06:31.587Z,31.35
2024-01-11T12:08:59.112Z,29.33
2024-01-11T12:11:27.179Z,27.67
2024-01-11T12:13:57.274Z,28.92
2024-01-11T12:16:24.640Z,34.72
2024-01-11T12:18:52.003Z,27.13
2024-01-11T12:21:19.404Z,27.15
2024-01-11T12:23:49.901Z,30.95
2024-01-11T12:26:23.176Z,30.05
2024-01-11T12:28:51.371Z,26.20
2024-01-11T12:31:20.911Z,25.88
2024-01-11T12:33:49.174Z,28.73
2024-01-11T12:36:16.824Z,30.15
2024-01-11T12:38:53.381Z,27.70
2024-01-11T12:41:22.298Z,28.77
2024-01-11T12:43:49.535Z,25.55
2024-01-11T12:46:16.861Z,24.27
2024-01-11T12:48:44.292Z,27.90
2024-01-11T12:51:17.517Z,28.15
2024-01-11T12:53:50.080Z,29.63
2024-01-11T12:56:17.959Z,36.13
2024-01-11T12:58:47.760Z,27.80
2024-01-11T13:01:15.417Z,24.65
2024-01-11T13:03:46.840Z,25.88
2024-01-11T13:06:14.787Z,27.55
2024-01-11T13:08:42.808Z,28.95
2024-01-11T13:11:10.579Z,26.25
2024-01-11T13:13:37.943Z,24.80
2024-01-11T13:16:07.176Z,30.52
2024-01-11T13:18:34.792Z,29.05
2024-01-11T13:21:04.007Z,33.20
2024-01-11T13:23:32.232Z,26.38
2024-01-11T13:25:59.525Z,27.92
2024-01-11T13:28:28.044Z,25.00
2024-01-11T13:30:55.382Z,27.83
2024-01-11T13:33:25.125Z,26.48
2024-01-11T13:35:52.720Z,32.67
2024-01-11T13:38:22.603Z,27.27
2024-01-11T13:40:51.586Z,26.23
2024-01-11T13:43:18.709Z,26.73
2024-01-11T13:45:46.090Z,28.42
2024-01-11T13:48:13.437Z,26.02
2024-01-11T13:50:40.836Z,26.70
2024-01-11T13:53:08.091Z,26.58
2024-01-11T13:55:41.933Z,25.15
2024-01-11T13:58:09.508Z,29.17
2024-01-11T14:00:36.942Z,27.33
2024-01-11T14:03:06.438Z,27.45
2024-01-11T14:05:34.144Z,26.35
2024-01-11T14:08:02.433Z,29.83
2024-01-11T14:10:29.870Z,26.75
2024-01-11T14:12:57.041Z,33.13
2024-01-11T14:15:25.145Z,32.72
2024-01-11T14:17:52.433Z,28.33
2024-01-11T14:20:20.113Z,32.13
2024-01-11T14:22:50.796Z,32.97
2024-01-11T14:25:18.561Z,33.30
2024-01-11T14:27:45.699Z,30.98
2024-01-11T14:30:13.776Z,33.65
2024-01-11T14:32:42.389Z,28.80
2024-01-11T14:35:10.711Z,30.23
2024-01-11T14:37:39.091Z,31.40
2024-01-11T14:40:07.053Z,28.98
2024-01-11T14:42:34.753Z,32.35
2024-01-11T14:45:02.253Z,32.47
2024-01-11T14:47:29.666Z,34.28
2024-01-11T14:49:56.948Z,28.13
2024-01-11T14:52:24.125Z,34.58
2024-01-11T14:54:51.597Z,33.95
2024-01-11T14:57:19.016Z,30.05
2024-01-11T14:59:46.180Z,35.58
2024-01-11T15:02:13.617Z,35.50
2024-01-11T15:04:40.832Z,29.80
2024-01-11T15:07:08.173Z,37.05
2024-01-11T15:09:39.100Z,35.67
2024-01-11T15:12:08.415Z,36.10
2024-01-11T15:14:35.720Z,27.65
2024-01-11T15:17:03.657Z,34.05
2024-01-11T15:19:31.752Z,32.58
2024-01-11T15:21:59.025Z,37.30
2024-01-11T15:24:26.184Z,28.73
2024-01-11T15:26:53.436Z,35.42
2024-01-11T15:29:21.097Z,34.35
2024-01-11T15:31:50.381Z,28.65
2024-01-11T15:34:18.185Z,33.33
2024-01-11T15:36:45.714Z,29.30
2024-01-11T15:39:20.932Z,29.83
2024-01-11T15:41:55.893Z,29.48
2024-01-11T15:44:24.470Z,31.13
2024-01-11T15:46:51.820Z,31.27
2024-01-11T15:49:19.110Z,32.17
2024-01-11T15:51:46.368Z,32.55
2024-01-11T15:54:13.486Z,30.05
2024-01-11T15:56:40.774Z,27.98
2024-01-11T15:59:08.653Z,24.48
2024-01-11T16:01:46.520Z,24.50
2024-01-11T16:04:22.919Z,24.58
2024-01-11T16:06:50.230Z,30.90
2024-01-11T16:09:17.558Z,29.63
2024-01-11T16:11:46.117Z,26.95
2024-01-11T16:14:13.519Z,35.40
2024-01-11T16:16:41.409Z,33.95
2024-01-11T16:19:08.660Z,31.92
2024-01-11T16:21:35.855Z,32.28
2024-01-11T16:24:03.797Z,33.00
2024-01-11T16:26:31.313Z,28.65
2024-01-11T16:28:58.710Z,27.08
2024-01-11T16:31:26.075Z,34.03
2024-01-11T16:33:54.254Z,29.75
2024-01-11T16:36:21.997Z,34.10
2024-01-11T16:38:49.506Z,28.70
2024-01-11T16:41:17.074Z,29.65
2024-01-11T16:43:45.579Z,30.50
2024-01-11T16:46:22.339Z,34.92
2024-01-11T16:48:50.645Z,33.03
2024-01-11T16:51:17.876Z,32.40
2024-01-11T16:53:45.384Z,29.30
2024-01-11T16:56:12.733Z,30.30
2024-01-11T16:58:40.028Z,31.15
2024-01-11T17:01:07.487Z,31.80
2024-01-11T17:03:34.857Z,35.72
2024-01-11T17:06:02.155Z,43.05
2024-01-11T17:08:30.463Z,31.08
2024-01-11T17:10:57.988Z,34.20
2024-01-11T17:13:25.231Z,34.60
2024-01-11T17:15:53.763Z,31.20
2024-01-11T17:18:21.367Z,37.40
2024-01-11T17:20:55.270Z,31.30
2024-01-11T17:23:22.466Z,36.72
2024-01-11T17:25:49.609Z,39.38
2024-01-11T17:28:16.840Z,40.15
2024-01-11T17:30:44.088Z,35.13
2024-01-11T17:33:11.578Z,34.72
2024-01-11T17:35:38.861Z,33.03
2024-01-11T17:38:06.113Z,37.47
2024-01-11T17:40:34.672Z,37.45
2024-01-11T17:43:03.332Z,36.33
2024-01-11T17:45:30.435Z,37.42
2024-01-11T17:47:58.186Z,38.08
2024-01-11T17:50:26.037Z,37.10
2024-01-11T17:52:53.319Z,36.13
2024-01-11T17:55:21.669Z,30.30
2024-01-11T17:57:48.941Z,33.70
2024-01-11T18:00:16.269Z,32.65
2024-01-11T18:02:43.483Z,33.17
2024-01-11T18:05:11.198Z,33.35
2024-01-11T18:07:38.544Z,35.95
2024-01-11T18:10:06.278Z,34.78
2024-01-11T18:12:33.487Z,33.80
2024-01-11T18:15:00.916Z,34.92
2024-01-11T18:17:28.449Z,33.15
2024-01-11T18:19:55.807Z,26.70
2024-01-11T18:22:25.045Z,33.45
2024-01-11T18:24:52.336Z,39.65
2024-01-11T18:27:20.891Z,36.45
2024-01-11T18:29:48.156Z,32.35
2024-01-11T18:32:15.374Z,34.78
2024-01-11T18:34:42.666Z,32.75
2024-01-11T18:37:09.809Z,35.97
2024-01-11T18:39:36.951Z,29.00
2024-01-11T18:42:04.404Z,35.35
2024-01-11T18:44:31.792Z,34.88
2024-01-11T18:46:58.994Z,34.88
2024-01-11T18:49:26.167Z,35.63
2024-01-11T18:51:53.391Z,35.05
2024-01-11T18:54:20.555Z,40.22
2024-01-11T18:56:47.823Z,32.15
2024-01-11T18:59:15.253Z,35.05
2024-01-11T19:01:47.957Z,36.45
2024-01-11T19:04:15.827Z,30.40
2024-01-11T19:06:45.994Z,34.75
2024-01-11T19:09:13.392Z,39.05
2024-01-11T19:11:40.750Z,35.30
2024-01-11T19:14:10.703Z,29.23
2024-01-11T19:16:38.202Z,39.92
2024-01-11T19:19:05.644Z,35.97
2024-01-11T19:21:32.828Z,33.13
2024-01-11T19:24:00.076Z,36.60
2024-01-11T19:26:27.352Z,29.67
2024-01-11T19:28:54.946Z,32.72
2024-01-11T19:31:22.245Z,33.72
2024-01-11T19:33:49.796Z,32.38
2024-01-11T19:36:16.979Z,33.15
2024-01-11T19:38:44.858Z,37.33
2024-01-11T19:41:12.036Z,34.67
2024-01-11T19:43:46.650Z,36.63
2024-01-11T19:46:17.970Z,32.70
2024-01-11T19:48:45.287Z,31.60
2024-01-11T19:51:12.866Z,39.10
2024-01-11T19:53:40.252Z,37.53
2024-01-11T19:56:16.711Z,36.15
2024-01-11T19:58:44.062Z,35.60
2024-01-11T20:01:11.561Z,43.03
2024-01-11T20:03:39.884Z,32.17
2024-01-11T20:06:07.957Z,38.38
2024-01-11T20:08:38.542Z,37.05
2024-01-11T20:11:07.915Z,37.45
2024-01-11T20:13:35.049Z,35.92
2024-01-11T20:16:02.739Z,36.92
2024-01-11T20:18:30.727Z,34.75
2024-01-11T20:20:58.883Z,42.47
2024-01-11T20:23:26.287Z,34.83
2024-01-11T20:25:53.897Z,44.80
2024-01-11T20:28:21.133Z,42.33
2024-01-11T20:30:48.750Z,41.35
2024-01-11T20:33:16.495Z,39.53
2024-01-11T20:35:43.897Z,35.22
2024-01-11T20:38:11.156Z,36.30
2024-01-11T20:40:38.358Z,39.50
2024-01-11T20:43:07.380Z,44.28
2024-01-11T20:45:34.570Z,51.72
2024-01-11T20:48:02.051Z,44.08
2024-01-11T20:50:30.829Z,45.05
2024-01-11T20:52:58.868Z,39.15
2024-01-11T20:55:25.986Z,45.65
2024-01-11T20:57:53.155Z,42.63
2024-01-11T21:00:20.401Z,41.83
2024-01-11T21:02:47.711Z,39.22
2024-01-11T21:05:15.073Z,43.00
2024-01-11T21:07:42.290Z,41.40
2024-01-11T21:10:09.568Z,41.47
2024-01-11T21:12:36.698Z,39.90
2024-01-11T21:15:04.197Z,43.97
2024-01-11T21:17:31.644Z,44.75
2024-01-11T21:19:58.932Z,42.75
2024-01-11T21:22:26.096Z,46.60
2024-01-11T21:24:54.357Z,47.83
2024-01-11T21:27:22.323Z,51.20
2024-01-11T21:29:49.728Z,46.67
2024-01-11T21:32:17.000Z,43.00
2024-01-11T21:34:44.594Z,47.38
2024-01-11T21:37:11.908Z,49.47
2024-01-11T21:39:38.974Z,53.65
2024-01-11T21:42:06.191Z,51.17
2024-01-11T21:44:33.342Z,51.13
2024-01-11T21:47:00.529Z,45.92
2024-01-11T21:49:27.698Z,45.35
2024-01-11T21:51:54.950Z,43.17
2024-01-11T21:54:24.093Z,50.03
2024-01-11T21:56:51.598Z,45.33
2024-01-11T21:59:18.907Z,40.33
2024-01-11T22:01:46.089Z,40.85
2024-01-11T22:04:13.573Z,51.90
2024-01-11T22:06:41.003Z,52.15
2024-01-11T22:09:08.120Z,50.03
2024-01-11T22:11:35.997Z,49.10
2024-01-11T22:14:03.594Z,48.78
2024-01-11T22:16:31.673Z,45.63
2024-01-11T22:18:59.019Z,50.47
2024-01-11T22:21:29.041Z,48.47
2024-01-11T22:23:57.225Z,43.88
2024-01-11T22:26:25.938Z,53.60
2024-01-11T22:28:53.139Z,44.72
2024-01-11T22:31:22.261Z,44.42
2024-01-11T22:33:49.603Z,47.30
2024-01-11T22:36:16.841Z,47.67
2024-01-11T22:38:44.047Z,40.30
2024-01-11T22:41:11.248Z,45.30
2024-01-11T22:43:38.556Z,46.00
2024-01-11T22:46:05.833Z,52.47
2024-01-11T22:48:33.413Z,47.03
2024-01-11T22:51:00.766Z,46.38
2024-01-11T22:53:27.947Z,45.60
2024-01-11T22:55:55.129Z,45.08
2024-01-11T22:58:22.252Z,44.38
2024-01-11T23:00:50.928Z,45.83
2024-01-11T23:03:20.303Z,44.97
2024-01-11T23:05:47.506Z,43.30
2024-01-11T23:08:14.730Z,47.40
2024-01-11T23:10:41.949Z,49.13
2024-01-11T23:13:09.113Z,46.80
2024-01-11T23:15:36.211Z,43.55
2024-01-11T23:18:03.452Z,40.28
2024-01-11T23:20:30.790Z,46.33
2024-01-11T23:22:57.971Z,46.40
2024-01-11T23:25:25.092Z,43.88
2024-01-11T23:27:52.348Z,47.28
2024-01-11T23:30:19.503Z,39.85
2024-01-11T23:32:46.775Z,49.92
2024-01-11T23:35:13.938Z,39.88
2024-01-11T23:37:41.043Z,42.95
2024-01-11T23:40:08.732Z,44.40
2024-01-11T23:42:35.896Z,36.35
2024-01-11T23:45:03.845Z,36.75
2024-01-11T23:47:33.712Z,38.35
2024-01-11T23:50:01.294Z,34.20
2024-01-11T23:52:30.148Z,40.65
2024-01-11T23:54:57.356Z,48.92
2024-01-11T23:57:24.468Z,44.33
2024-01-11T23:59:51.726Z,37.00
